Nyk Olympus — 3EOS7 — position and weather

sailwx.info

Track history (hours):
 
Tides and Currents Weather Stations Pressure Air Temp Water Temp Dewpoint Dewpoint Depression Visibility Wind Speed Wind Dir Waves Ship Positions

Nyk Olympus

Last reported at 2014-Jul-28 07:16 UTC. Time now 2014-Jul-28 08:18 UTC.
Position N 22°08' E 114°28'.

Length 335 m; draft 10.4 m.

Type: Ship. MMSI: 372478000.

Date/timePositionNaut miles runAvg speedWind from/ knotsBaromVisibWave heightAir tempDewpointWater temp
2014-Jul-28 07:16N 22°08' E 114°28'14416.3
2014-Jul-27 22:26N 22°46' E 116°59'1820.4
2014-Jul-27 21:33N 23°00' E 117°11'2020.6
2014-Jul-27 20:33N 23°16' E 117°26'2120.8
2014-Jul-27 19:33N 23°29' E 117°43'2120.8
2014-Jul-27 18:34N 23°42' E 118°01'2020.1
2014-Jul-27 17:33N 23°55' E 118°18'2019.7
2014-Jul-27 16:33N 24°07' E 118°35'2019.9
2014-Jul-27 15:33N 24°19' E 118°52'1919.4
2014-Jul-27 14:33N 24°31' E 119°09'1919.4
2014-Jul-27 13:33N 24°43' E 119°26'1919.1
2014-Jul-27 12:33N 24°54' E 119°43'2119.4
2014-Jul-27 11:29N 25°06' E 120°01'  
2014-Jul-25 00:24N 34°48' E 139°37'1619.2
2014-Jul-24 23:34N 35°03' E 139°41'1413.6
2014-Jul-24 22:33N 35°16' E 139°45'1313.2
2014-Jul-24 21:34N 35°29' E 139°50'7 7.4
2014-Jul-24 20:34N 35°36' E 139°46'0 0.0
2014-Jul-24 19:28N 35°36' E 139°46'0 0.0
2014-Jul-24 18:22N 35°36' E 139°46'0 0.0
2014-Jul-24 17:28N 35°36' E 139°46'0 0.0
2014-Jul-24 16:31N 35°36' E 139°46'0 0.0
2014-Jul-24 15:31N 35°36' E 139°46'0 0.0
2014-Jul-24 14:31N 35°36' E 139°46'0 0.0
2014-Jul-24 13:31N 35°36' E 139°46'0 0.0
2014-Jul-24 12:28N 35°36' E 139°46'0 0.0
2014-Jul-24 11:31N 35°36' E 139°46'0 0.0
2014-Jul-24 10:31N 35°36' E 139°46'0 0.0
2014-Jul-24 09:22N 35°36' E 139°46'0 0.0
2014-Jul-24 08:31N 35°36' E 139°46'0 0.0
2014-Jul-24 07:28N 35°36' E 139°46'0 0.0
2014-Jul-24 06:25N 35°36' E 139°46'0 0.0
2014-Jul-24 05:31N 35°36' E 139°46'0 0.0
2014-Jul-24 04:31N 35°36' E 139°46'0 0.0
2014-Jul-24 03:31N 35°36' E 139°46'0 0.0
2014-Jul-24 02:28N 35°36' E 139°46'0 0.0
2014-Jul-24 01:31N 35°36' E 139°46'0 0.0
2014-Jul-24 00:31N 35°36' E 139°46'0 0.0
2014-Jul-23 23:31N 35°36' E 139°46'0 0.0
2014-Jul-23 22:28N 35°36' E 139°46'0 0.0
2014-Jul-23 21:31N 35°36' E 139°46'0 0.0
2014-Jul-23 20:28N 35°36' E 139°46'0 0.0
2014-Jul-23 19:31N 35°36' E 139°46'0 0.0
2014-Jul-23 18:31N 35°36' E 139°46'0 0.0
2014-Jul-23 17:31N 35°36' E 139°46'0 0.0
2014-Jul-23 16:31N 35°36' E 139°46'0 0.0
2014-Jul-23 15:31N 35°36' E 139°46'0 0.0
2014-Jul-23 14:31N 35°36' E 139°46'0 0.0
2014-Jul-23 13:28N 35°36' E 139°46'0 0.0
2014-Jul-23 12:28N 35°36' E 139°46'0 0.0
2014-Jul-23 11:31N 35°36' E 139°46'0 0.0
2014-Jul-23 10:31N 35°36' E 139°46'0 0.0
2014-Jul-23 09:31N 35°36' E 139°46'0 0.0
2014-Jul-23 08:28N 35°36' E 139°46'0 0.0
2014-Jul-23 07:28N 35°36' E 139°46'0 0.0
2014-Jul-23 06:16N 35°36' E 139°46'0 0.0
2014-Jul-23 05:31N 35°36' E 139°46'0 0.0
2014-Jul-23 04:25N 35°36' E 139°46'0 0.0
2014-Jul-23 03:16N 35°36' E 139°46'0 0.0
2014-Jul-23 02:31N 35°36' E 139°46'0 0.0
2014-Jul-23 01:28N 35°36' E 139°46'0 0.0
2014-Jul-23 00:28N 35°36' E 139°46'0 0.0
2014-Jul-22 23:22N 35°36' E 139°46'3 3.2
2014-Jul-22 22:34N 35°34' E 139°49'8 8.4
2014-Jul-22 21:33N 35°26' E 139°48'1211.6
2014-Jul-22 20:34N 35°14' E 139°47'10 9.8
2014-Jul-22 19:34N 35°04' E 139°45'1111.4
2014-Jul-22 18:34N 34°54' E 139°39'1413.6
2014-Jul-22 17:33N 34°42' E 139°31'1514.8
2014-Jul-22 16:33N 34°35' E 139°15'4511.2
2014-Jul-22 12:33N 35°02' E 138°31'1 0.2
2014-Jul-22 08:12N 35°02' E 138°31'0 0.0
2014-Jul-22 07:18N 35°02' E 138°31'0 0.1
2014-Jul-22 06:30N 35°02' E 138°31'0 0.0
2014-Jul-22 05:18N 35°02' E 138°31'0 0.0
2014-Jul-22 03:06N 35°02' E 138°31'0 0.1
2014-Jul-22 02:30N 35°02' E 138°31'0 0.0
2014-Jul-22 01:06N 35°02' E 138°31'0 0.0
2014-Jul-22 00:24N 35°02' E 138°31'0 0.0
2014-Jul-21 23:12N 35°02' E 138°31'0 0.0
2014-Jul-21 22:33N 35°02' E 138°31'2 1.7
2014-Jul-21 21:07N 35°01' E 138°34'6 9.8
2014-Jul-21 20:33N 34°56' E 138°32'412.5
2014-Jul-21 20:14N 34°52' E 138°30'178 3.7
2014-Jul-19 20:33N 34°15' E 134°58'1514.8
2014-Jul-19 19:33N 34°27' E 135°06'1514.9
2014-Jul-19 18:33N 34°39' E 135°18'2 1.7
2014-Jul-19 17:33N 34°41' E 135°17'0 0.0
2014-Jul-19 16:27N 34°41' E 135°17'0 0.0
2014-Jul-19 15:33N 34°41' E 135°17'0 0.0
2014-Jul-19 14:33N 34°41' E 135°17'0 0.0
2014-Jul-19 13:33N 34°41' E 135°17'0 0.0
2014-Jul-19 12:33N 34°41' E 135°17'0 0.0
2014-Jul-19 11:33N 34°41' E 135°17'0 0.0
2014-Jul-19 10:33N 34°41' E 135°17'0 0.0
2014-Jul-19 09:33N 34°41' E 135°17'0 0.0
2014-Jul-19 08:33N 34°41' E 135°17'0 0.0
2014-Jul-19 06:33N 34°41' E 135°17'0 0.0
2014-Jul-19 05:27N 34°41' E 135°17'0 0.0
2014-Jul-19 04:33N 34°41' E 135°17'0 0.0
2014-Jul-19 03:33N 34°41' E 135°17'0 0.3
2014-Jul-19 02:33N 34°41' E 135°17'8 8.0
2014-Jul-19 01:33N 34°33' E 135°15'1515.0
2014-Jul-19 00:33N 34°22' E 135°03'1212.5
2014-Jul-18 23:33N 34°09' E 134°60'1010.5
2014-Jul-18 22:33N 33°59' E 134°59'1111.2
2014-Jul-18 21:33N 33°48' E 134°58'  
Track history (hours):
 
Tides and Currents Weather Stations Pressure Air Temp Water Temp Dewpoint Dewpoint Depression Visibility Wind Speed Wind Dir Waves Ship Positions

Nyk Olympus

Last reported at 2014-Jul-28 07:16 UTC. Time now 2014-Jul-28 08:18 UTC.
Position N 22°08' E 114°28'.

Length 335 m; draft 10.4 m.

Type: Ship. MMSI: 372478000.

Date/timePositionNaut miles runAvg speedWind from/ knotsBaromVisibWave heightAir tempDewpointWater temp
2014-Jul-28 07:16N 22°08' E 114°28'14416.3
2014-Jul-27 22:26N 22°46' E 116°59'1820.4
2014-Jul-27 21:33N 23°00' E 117°11'2020.6
2014-Jul-27 20:33N 23°16' E 117°26'2120.8
2014-Jul-27 19:33N 23°29' E 117°43'2120.8
2014-Jul-27 18:34N 23°42' E 118°01'2020.1
2014-Jul-27 17:33N 23°55' E 118°18'2019.7
2014-Jul-27 16:33N 24°07' E 118°35'2019.9
2014-Jul-27 15:33N 24°19' E 118°52'1919.4
2014-Jul-27 14:33N 24°31' E 119°09'1919.4
2014-Jul-27 13:33N 24°43' E 119°26'1919.1
2014-Jul-27 12:33N 24°54' E 119°43'2119.4
2014-Jul-27 11:29N 25°06' E 120°01'  
2014-Jul-25 00:24N 34°48' E 139°37'1619.2
2014-Jul-24 23:34N 35°03' E 139°41'1413.6
2014-Jul-24 22:33N 35°16' E 139°45'1313.2
2014-Jul-24 21:34N 35°29' E 139°50'7 7.4
2014-Jul-24 20:34N 35°36' E 139°46'0 0.0
2014-Jul-24 19:28N 35°36' E 139°46'0 0.0
2014-Jul-24 18:22N 35°36' E 139°46'0 0.0
2014-Jul-24 17:28N 35°36' E 139°46'0 0.0
2014-Jul-24 16:31N 35°36' E 139°46'0 0.0
2014-Jul-24 15:31N 35°36' E 139°46'0 0.0
2014-Jul-24 14:31N 35°36' E 139°46'0 0.0
2014-Jul-24 13:31N 35°36' E 139°46'0 0.0
2014-Jul-24 12:28N 35°36' E 139°46'0 0.0
2014-Jul-24 11:31N 35°36' E 139°46'0 0.0
2014-Jul-24 10:31N 35°36' E 139°46'0 0.0
2014-Jul-24 09:22N 35°36' E 139°46'0 0.0
2014-Jul-24 08:31N 35°36' E 139°46'0 0.0
2014-Jul-24 07:28N 35°36' E 139°46'0 0.0
2014-Jul-24 06:25N 35°36' E 139°46'0 0.0
2014-Jul-24 05:31N 35°36' E 139°46'0 0.0
2014-Jul-24 04:31N 35°36' E 139°46'0 0.0
2014-Jul-24 03:31N 35°36' E 139°46'0 0.0
2014-Jul-24 02:28N 35°36' E 139°46'0 0.0
2014-Jul-24 01:31N 35°36' E 139°46'0 0.0
2014-Jul-24 00:31N 35°36' E 139°46'0 0.0
2014-Jul-23 23:31N 35°36' E 139°46'0 0.0
2014-Jul-23 22:28N 35°36' E 139°46'0 0.0
2014-Jul-23 21:31N 35°36' E 139°46'0 0.0
2014-Jul-23 20:28N 35°36' E 139°46'0 0.0
2014-Jul-23 19:31N 35°36' E 139°46'0 0.0
2014-Jul-23 18:31N 35°36' E 139°46'0 0.0
2014-Jul-23 17:31N 35°36' E 139°46'0 0.0
2014-Jul-23 16:31N 35°36' E 139°46'0 0.0
2014-Jul-23 15:31N 35°36' E 139°46'0 0.0
2014-Jul-23 14:31N 35°36' E 139°46'0 0.0
2014-Jul-23 13:28N 35°36' E 139°46'0 0.0
2014-Jul-23 12:28N 35°36' E 139°46'0 0.0
2014-Jul-23 11:31N 35°36' E 139°46'0 0.0
2014-Jul-23 10:31N 35°36' E 139°46'0 0.0
2014-Jul-23 09:31N 35°36' E 139°46'0 0.0
2014-Jul-23 08:28N 35°36' E 139°46'0 0.0
2014-Jul-23 07:28N 35°36' E 139°46'0 0.0
2014-Jul-23 06:16N 35°36' E 139°46'0 0.0
2014-Jul-23 05:31N 35°36' E 139°46'0 0.0
2014-Jul-23 04:25N 35°36' E 139°46'0 0.0
2014-Jul-23 03:16N 35°36' E 139°46'0 0.0
2014-Jul-23 02:31N 35°36' E 139°46'0 0.0
2014-Jul-23 01:28N 35°36' E 139°46'0 0.0
2014-Jul-23 00:28N 35°36' E 139°46'0 0.0
2014-Jul-22 23:22N 35°36' E 139°46'3 3.2
2014-Jul-22 22:34N 35°34' E 139°49'8 8.4
2014-Jul-22 21:33N 35°26' E 139°48'1211.6
2014-Jul-22 20:34N 35°14' E 139°47'10 9.8
2014-Jul-22 19:34N 35°04' E 139°45'1111.4
2014-Jul-22 18:34N 34°54' E 139°39'1413.6
2014-Jul-22 17:33N 34°42' E 139°31'1514.8
2014-Jul-22 16:33N 34°35' E 139°15'4511.2
2014-Jul-22 12:33N 35°02' E 138°31'1 0.2
2014-Jul-22 08:12N 35°02' E 138°31'0 0.0
2014-Jul-22 07:18N 35°02' E 138°31'0 0.1
2014-Jul-22 06:30N 35°02' E 138°31'0 0.0
2014-Jul-22 05:18N 35°02' E 138°31'0 0.0
2014-Jul-22 03:06N 35°02' E 138°31'0 0.1
2014-Jul-22 02:30N 35°02' E 138°31'0 0.0
2014-Jul-22 01:06N 35°02' E 138°31'0 0.0
2014-Jul-22 00:24N 35°02' E 138°31'0 0.0
2014-Jul-21 23:12N 35°02' E 138°31'0 0.0
2014-Jul-21 22:33N 35°02' E 138°31'2 1.7
2014-Jul-21 21:07N 35°01' E 138°34'6 9.8
2014-Jul-21 20:33N 34°56' E 138°32'412.5
2014-Jul-21 20:14N 34°52' E 138°30'178 3.7
2014-Jul-19 20:33N 34°15' E 134°58'1514.8
2014-Jul-19 19:33N 34°27' E 135°06'1514.9
2014-Jul-19 18:33N 34°39' E 135°18'2 1.7
2014-Jul-19 17:33N 34°41' E 135°17'0 0.0
2014-Jul-19 16:27N 34°41' E 135°17'0 0.0
2014-Jul-19 15:33N 34°41' E 135°17'0 0.0
2014-Jul-19 14:33N 34°41' E 135°17'0 0.0
2014-Jul-19 13:33N 34°41' E 135°17'0 0.0
2014-Jul-19 12:33N 34°41' E 135°17'0 0.0
2014-Jul-19 11:33N 34°41' E 135°17'0 0.0
2014-Jul-19 10:33N 34°41' E 135°17'0 0.0
2014-Jul-19 09:33N 34°41' E 135°17'0 0.0
2014-Jul-19 08:33N 34°41' E 135°17'0 0.0
2014-Jul-19 06:33N 34°41' E 135°17'0 0.0
2014-Jul-19 05:27N 34°41' E 135°17'0 0.0
2014-Jul-19 04:33N 34°41' E 135°17'0 0.0
2014-Jul-19 03:33N 34°41' E 135°17'0 0.3
2014-Jul-19 02:33N 34°41' E 135°17'8 8.0
2014-Jul-19 01:33N 34°33' E 135°15'1515.0
2014-Jul-19 00:33N 34°22' E 135°03'1212.5
2014-Jul-18 23:33N 34°09' E 134°60'1010.5
2014-Jul-18 22:33N 33°59' E 134°59'1111.2
2014-Jul-18 21:33N 33°48' E 134°58'  

Dump ship's entire track history